sensor_id;sensor_type;location;lat;lon;timestamp;temperature;humidity
1277;DHT22;631;51.024;13.826;2023-03-23T19:35:42;12.50;99.90
1277;DHT22;631;51.024;13.826;2023-03-23T19:38:09;12.50;99.90
1277;DHT22;631;51.024;13.826;2023-03-23T19:40:35;12.50;99.90
1277;DHT22;631;51.024;13.826;2023-03-23T19:43:05;12.40;99.90
1277;DHT22;631;51.024;13.826;2023-03-23T19:45:31;12.40;99.90
1277;DHT22;631;51.024;13.826;2023-03-23T19:47:57;12.40;99.90
1277;DHT22;631;51.024;13.826;2023-03-23T19:50:23;12.40;99.90
1277;DHT22;631;51.024;13.826;2023-03-23T19:52:49;12.40;99.90
1277;DHT22;631;51.024;13.826;2023-03-23T19:55:14;12.40;99.90
1277;DHT22;631;51.024;13.826;2023-03-23T19:57:40;12.40;99.90
1277;DHT22;631;51.024;13.826;2023-03-23T20:00:07;12.40;99.90
1277;DHT22;631;51.024;13.826;2023-03-23T20:02:33;12.30;99.90
1277;DHT22;631;51.024;13.826;2023-03-23T20:04:59;12.30;99.90
1277;DHT22;631;51.024;13.826;2023-03-23T20:07:24;12.40;99.90
1277;DHT22;631;51.024;13.826;2023-03-23T20:09:50;12.40;99.90
1277;DHT22;631;51.024;13.826;2023-03-23T20:12:16;12.40;99.90
1277;DHT22;631;51.024;13.826;2023-03-23T20:14:42;12.50;99.90
1277;DHT22;631;51.024;13.826;2023-03-23T20:17:10;12.50;99.90
1277;DHT22;631;51.024;13.826;2023-03-23T20:19:36;12.50;99.90
1277;DHT22;631;51.024;13.826;2023-03-23T20:22:02;12.60;99.90
1277;DHT22;631;51.024;13.826;2023-03-23T20:24:28;12.60;99.90
1277;DHT22;631;51.024;13.826;2023-03-23T20:26:53;12.60;99.90
1277;DHT22;631;51.024;13.826;2023-03-23T20:29:19;12.60;99.90
1277;DHT22;631;51.024;13.826;2023-03-23T20:31:45;12.70;99.90
1277;DHT22;631;51.024;13.826;2023-03-23T20:34:13;12.70;99.90
1277;DHT22;631;51.024;13.826;2023-03-23T20:36:44;12.70;99.90
1277;DHT22;631;51.024;13.826;2023-03-23T20:39:13;12.70;99.90
1277;DHT22;631;51.024;13.826;2023-03-23T20:41:40;12.70;99.90
1277;DHT22;631;51.024;13.826;2023-03-23T20:44:09;12.70;99.90
1277;DHT22;631;51.024;13.826;2023-03-23T20:46:38;12.70;99.90
1277;DHT22;631;51.024;13.826;2023-03-23T20:49:04;12.70;99.90
1277;DHT22;631;51.024;13.826;2023-03-23T20:51:30;12.70;99.90
1277;DHT22;631;51.024;13.826;2023-03-23T20:53:57;12.70;99.90
1277;DHT22;631;51.024;13.826;2023-03-23T20:56:23;12.70;99.90
1277;DHT22;631;51.024;13.826;2023-03-23T20:58:50;12.70;99.90
1277;DHT22;631;51.024;13.826;2023-03-23T21:01:16;12.60;99.90
1277;DHT22;631;51.024;13.826;2023-03-23T21:03:42;12.60;99.90
1277;DHT22;631;51.024;13.826;2023-03-23T21:06:08;12.60;99.90
1277;DHT22;631;51.024;13.826;2023-03-23T21:08:36;12.60;99.90
1277;DHT22;631;51.024;13.826;2023-03-23T21:11:04;12.60;99.90
1277;DHT22;631;51.024;13.826;2023-03-23T21:13:31;12.60;99.90
1277;DHT22;631;51.024;13.826;2023-03-23T21:15:58;12.60;99.90
1277;DHT22;631;51.024;13.826;2023-03-23T21:18:24;12.60;99.90
1277;DHT22;631;51.024;13.826;2023-03-23T21:20:50;12.60;99.90
1277;DHT22;631;51.024;13.826;2023-03-23T21:23:16;12.60;99.90
1277;DHT22;631;51.024;13.826;2023-03-23T21:25:44;12.70;99.90
1277;DHT22;631;51.024;13.826;2023-03-23T21:28:11;12.70;99.90
1277;DHT22;631;51.024;13.826;2023-03-23T21:30:37;12.70;99.90
1277;DHT22;631;51.024;13.826;2023-03-23T21:33:06;12.70;99.90
1277;DHT22;631;51.024;13.826;2023-03-23T21:35:32;12.80;99.90
1277;DHT22;631;51.024;13.826;2023-03-23T21:37:58;12.80;99.90
1277;DHT22;631;51.024;13.826;2023-03-23T21:40:24;12.90;99.90
1277;DHT22;631;51.024;13.826;2023-03-23T21:42:49;13.00;99.90
1277;DHT22;631;51.024;13.826;2023-03-23T21:45:16;13.00;99.90
1277;DHT22;631;51.024;13.826;2023-03-23T21:47:49;13.00;99.90
1277;DHT22;631;51.024;13.826;2023-03-23T21:50:21;13.00;99.90
1277;DHT22;631;51.024;13.826;2023-03-23T21:52:49;13.00;99.90
1277;DHT22;631;51.024;13.826;2023-03-23T21:55:15;12.90;99.90
1277;DHT22;631;51.024;13.826;2023-03-23T21:57:41;12.90;99.90
1277;DHT22;631;51.024;13.826;2023-03-23T22:00:09;12.90;99.90
1277;DHT22;631;51.024;13.826;2023-03-23T22:02:39;12.90;99.90
1277;DHT22;631;51.024;13.826;2023-03-23T22:05:05;12.90;99.90
1277;DHT22;631;51.024;13.826;2023-03-23T22:07:31;12.90;99.90
1277;DHT22;631;51.024;13.826;2023-03-23T22:09:57;12.90;99.90
1277;DHT22;631;51.024;13.826;2023-03-23T22:12:23;12.90;99.90
1277;DHT22;631;51.024;13.826;2023-03-23T22:14:50;12.90;99.90
1277;DHT22;631;51.024;13.826;2023-03-23T22:17:15;13.00;99.90
1277;DHT22;631;51.024;13.826;2023-03-23T22:19:41;13.10;99.90
1277;DHT22;631;51.024;13.826;2023-03-23T22:22:07;13.10;99.90
1277;DHT22;631;51.024;13.826;2023-03-23T22:24:33;13.20;99.90
1277;DHT22;631;51.024;13.826;2023-03-23T22:26:59;13.30;99.90
1277;DHT22;631;51.024;13.826;2023-03-23T22:29:25;13.40;99.90
1277;DHT22;631;51.024;13.826;2023-03-23T22:31:51;13.40;99.90
1277;DHT22;631;51.024;13.826;2023-03-23T22:34:16;13.40;99.90
1277;DHT22;631;51.024;13.826;2023-03-23T22:36:42;13.50;99.90
1277;DHT22;631;51.024;13.826;2023-03-23T22:39:09;13.60;99.90
1277;DHT22;631;51.024;13.826;2023-03-23T22:41:37;13.60;99.90
1277;DHT22;631;51.024;13.826;2023-03-23T22:44:05;13.60;99.90
1277;DHT22;631;51.024;13.826;2023-03-23T22:46:32;13.60;99.90
1277;DHT22;631;51.024;13.826;2023-03-23T22:48:57;13.60;99.90
1277;DHT22;631;51.024;13.826;2023-03-23T22:51:23;13.60;99.90
1277;DHT22;631;51.024;13.826;2023-03-23T22:53:49;13.60;99.90
1277;DHT22;631;51.024;13.826;2023-03-23T22:56:15;13.50;99.90
1277;DHT22;631;51.024;13.826;2023-03-23T22:58:42;13.50;99.90
1277;DHT22;631;51.024;13.826;2023-03-23T23:01:12;13.40;99.90
1277;DHT22;631;51.024;13.826;2023-03-23T23:03:37;13.30;99.90
1277;DHT22;631;51.024;13.826;2023-03-23T23:06:05;13.20;99.90
1277;DHT22;631;51.024;13.826;2023-03-23T23:08:31;13.10;99.90
1277;DHT22;631;51.024;13.826;2023-03-23T23:10:59;13.10;99.90
1277;DHT22;631;51.024;13.826;2023-03-23T23:13:26;13.00;99.90
1277;DHT22;631;51.024;13.826;2023-03-23T23:15:54;12.90;99.90
1277;DHT22;631;51.024;13.826;2023-03-23T23:18:21;12.90;99.90
1277;DHT22;631;51.024;13.826;2023-03-23T23:20:52;12.90;99.90
1277;DHT22;631;51.024;13.826;2023-03-23T23:23:19;12.80;99.90
1277;DHT22;631;51.024;13.826;2023-03-23T23:25:46;12.80;99.90
1277;DHT22;631;51.024;13.826;2023-03-23T23:28:12;12.80;99.90
1277;DHT22;631;51.024;13.826;2023-03-23T23:30:38;12.80;99.90
1277;DHT22;631;51.024;13.826;2023-03-23T23:33:04;12.80;99.90
1277;DHT22;631;51.024;13.826;2023-03-23T23:35:31;12.80;99.90
1277;DHT22;631;51.024;13.826;2023-03-23T23:37:59;12.80;99.90
1277;DHT22;631;51.024;13.826;2023-03-23T23:40:24;12.80;99.90
1277;DHT22;631;51.024;13.826;2023-03-23T23:42:51;12.80;99.90
1277;DHT22;631;51.024;13.826;2023-03-23T23:45:17;12.80;99.90
1277;DHT22;631;51.024;13.826;2023-03-23T23:47:43;12.80;99.90
1277;DHT22;631;51.024;13.826;2023-03-23T23:50:11;12.80;99.90
1277;DHT22;631;51.024;13.826;2023-03-23T23:52:38;12.80;99.90
1277;DHT22;631;51.024;13.826;2023-03-23T23:55:06;12.80;99.90
1277;DHT22;631;51.024;13.826;2023-03-23T23:57:32;12.90;99.90
1277;DHT22;631;51.024;13.826;2023-03-23T23:59:58;12.90;99.90
